Lake Mills, Wisconsin
Current Conditions -  °F | °C
As of 2:35 AM on Friday 31 Oct 2014 (Local Time) from KRYV Reporting Station
Overcast Overcast  
Wind Chill: 29°   Ceiling: 3600
Heat Index: 38°   Visibility: 10mi
Dew Point: 31°   Wind: 17mph
Humidity: 75%   Direction: 340°NNW
Pressure: 30.07"   Gusts: 26mph
Location:  43.08°N, 88.91°W
Report Text: KRYV 310735Z AUTO 34015G23KT 10SM SCT023 BKN036 OVC075 04/00 A3007 RMK AO2 T00361004
Loading
Personal Weather Stations






























Interactive Weather Map
Tropical Storm Tracking
New forecast layout! Learn more

10-Day Weather Forecast

Advertisements
Track Severe Weather on mobile